METAR Data
IDs: Format: Raw Decoded Include TAF

Data at: 1745 UTC 25 Mar 2019

KRFI 251735Z AUTO 34006KT 10SM CLR 22/13 A3016 RMK AO2 T02240126
KRFI 251715Z AUTO 32006KT 280V010 10SM CLR 22/13 A3016 RMK AO2 LTG DSNT SE T02160128
KRFI 251655Z AUTO 36009KT 10SM CLR 21/14 A3016 RMK AO2 T02140137
KRFI 251635Z AUTO 00000KT 10SM SCT026 20/14 A3016 RMK AO2 T02040143
KRFI 251615Z AUTO 02006KT 10SM CLR 20/15 A3015 RMK AO2 T01990145
KRFI 251535Z AUTO 35005KT 10SM SCT014 SCT080 19/15 A3014 RMK AO2 T01920146
KRFI 251515Z AUTO 36007KT 10SM SCT012 SCT080 19/15 A3014 RMK AO2 T01880152
KRFI 251455Z AUTO 01007KT 10SM SCT008 18/16 A3013 RMK AO2 T01760156
KRFI 251435Z AUTO 35009KT 10SM BKN008 BKN060 17/16 A3013 RMK AO2 T01700159
KRFI 251415Z AUTO 35006KT 10SM BKN008 OVC060 17/16 A3012 RMK AO2 T01680160
KRFI 251355Z AUTO 35003KT 10SM BKN008 BKN014 BKN060 17/16 A3011 RMK AO2 T01660160
KRFI 251335Z AUTO 35004KT 10SM BKN008 OVC018 17/16 A3011 RMK AO2 T01650160
KRFI 251315Z AUTO 00000KT 10SM BKN016 OVC038 16/16 A3011 RMK AO2 LTG DSNT SE T01630160
KRFI 251255Z AUTO 00000KT 10SM BKN016 OVC034 16/16 A3010 RMK AO2 LTG DSNT S T01640160
KRFI 251235Z AUTO 28003KT 10SM SCT016 OVC034 16/16 A3009 RMK AO2 T01630160
KRFI 251215Z AUTO 27003KT 10SM OVC032 16/16 A3008 RMK AO2 LTG DSNT SW T01630161
KRFI 251155Z AUTO 00000KT 10SM OVC027 16/16 A3006 RMK AO2 LTG DSNT W P0004 60099 70099 T01630160 10197 20157
KRFI 251135Z AUTO 00000KT 10SM SCT025 BKN032 OVC042 16/16 A3006 RMK AO2 LTG DSNT S P0004 T01620160
KRFI 251115Z AUTO 00000KT 7SM SCT004 BKN046 OVC080 16/16 A3004 RMK AO2 P0004 T01630160
KRFI 251055Z AUTO 00000KT 10SM SCT009 BKN045 OVC060 17/16 A3005 RMK AO2 LTG DSNT SE P0008 T01650161
KRFI 251035Z AUTO 21003KT 4SM SCT009 SCT045 BKN060 16/16 A3005 RMK AO2 T01590156
KRFI 251015Z AUTO 00000KT 2 1/2SM SCT049 SCT110 16/16 A3004 RMK AO2 VIS 1V5 T01580155
KRFI 250955Z AUTO 00000KT 10SM SCT021 SCT049 BKN075 16/16 A3004 RMK AO2 LTG DSNT SE AND SW P0022 T01630158
KRFI 250935Z AUTO 00000KT 4SM VCTS SCT021 BKN065 OVC100 17/16 A3005 RMK AO2 LTG DSNT ALQS P0022 T01660159
KRFI 250915Z AUTO 00000KT 1 1/2SM TS SCT008 BKN023 OVC110 17/16 A3005 RMK AO2 VIS 1/4V5 LTG DSNT ALQS P0010 T01700160
KRFI 250855Z AUTO 34007G23KT 270V010 1/2SM TS BKN006 OVC012 19/17 A3005 RMK AO2 LTG DSNT ALQS P0061 60061 T01860173
KRFI 250835Z AUTO 17007KT 10SM VCTS OVC012 20/18 A3003 RMK AO2 LTG DSNT ALQS T01960177
KRFI 250815Z AUTO 18005KT 10SM OVC012 20/18 A3004 RMK AO2 LTG DSNT ALQS T01960177
KRFI 250755Z AUTO 18004KT 10SM OVC012 20/18 A3003 RMK AO2 LTG DSNT W THRU NE T01970177
KRFI 250735Z AUTO 00000KT 10SM OVC010 20/18 A3004 RMK AO2 LTG DSNT NW THRU NE T01970177
KRFI 250715Z AUTO 20005KT 10SM OVC010 20/18 A3003 RMK AO2 LTG DSNT N AND NE T01970177
KRFI 250655Z AUTO 19007KT 10SM OVC010 20/18 A3002 RMK AO2 LTG DSNT N AND NW T01970178
KRFI 250635Z AUTO 18008G14KT 10SM OVC010 20/18 A3001 RMK AO2 LTG DSNT N T01950177
KRFI 250615Z AUTO 19009G16KT 10SM OVC010 20/18 A3001 RMK AO2 LTG DSNT N T01950177
KRFI 250555Z AUTO 18009KT 10SM OVC010 20/18 A3002 RMK AO2 T01950176 10229 20191 402380145
KRFI 250535Z AUTO 18008G15KT 10SM OVC010 19/18 A3002 RMK AO2 LTG DSNT N T01940175
KRFI 250515Z AUTO 18008G14KT 10SM BKN012 19/17 A3003 RMK AO2 T01920174
KRFI 250455Z AUTO 18007KT 10SM CLR 19/17 A3003 RMK AO2 T01920172
KRFI 250435Z AUTO 18007KT 10SM CLR 19/17 A3004 RMK AO2 LTG DSNT NW T01930171
KRFI 250415Z AUTO 18006KT 10SM CLR 20/17 A3005 RMK AO2 T01960170
KRFI 250355Z AUTO 19006KT 10SM CLR 20/17 A3006 RMK AO2 T01980170
KRFI 250335Z AUTO 18003KT 10SM CLR 20/17 A3005 RMK AO2 T01960167
KRFI 250315Z AUTO 17003KT 10SM CLR 20/17 A3004 RMK AO2 T02000167
KRFI 250255Z AUTO 17004KT 10SM CLR 20/17 A3003 RMK AO2 LTG DSNT NW T01980166
KRFI 250235Z AUTO 16005KT 10SM SCT044 20/17 A3003 RMK AO2 T01980167
KRFI 250215Z AUTO 13004KT 10SM SCT036 BKN044 20/17 A3002 RMK AO2 T01980167
KRFI 250155Z AUTO 00000KT 10SM BKN042 20/17 A3001 RMK AO2 T02000167
KRFI 250135Z AUTO 15003KT 10SM SCT042 SCT060 20/17 A3000 RMK AO2 T01980165
KRFI 250115Z AUTO 15004KT 10SM SCT037 SCT045 SCT060 21/17 A3000 RMK AO2 T02070167
KRFI 250055Z AUTO 13003KT 10SM BKN039 OVC048 21/17 A3000 RMK AO2 T02100172
KRFI 250035Z AUTO 00000KT 10SM SCT043 BKN049 22/17 A3001 RMK AO2 T02180171
KRFI 250015Z AUTO 00000KT 10SM SCT044 SCT050 22/17 A3000 RMK AO2 T02240169
KRFI 242355Z AUTO 15003KT 10SM SCT036 SCT044 23/17 A3001 RMK AO2 T02310170 10238 20200
KRFI 242335Z AUTO 15003KT 10SM BKN036 BKN042 OVC049 24/17 A3002 RMK AO2 T02350170
KRFI 242315Z AUTO 00000KT 10SM BKN038 BKN044 BKN050 23/17 A3002 RMK AO2 T02340167
KRFI 242255Z AUTO 17003KT 10SM SCT037 BKN042 OVC050 24/17 A3003 RMK AO2 T02350167
KRFI 242235Z AUTO 20004KT 10SM SCT033 SCT042 OVC055 23/17 A3004 RMK AO2 T02330167
KRFI 242215Z AUTO 19003KT 10SM SCT029 BKN036 OVC049 23/17 A3004 RMK AO2 T02330168
KRFI 242155Z AUTO 15003KT 10SM SCT029 BKN038 BKN049 24/17 A3004 RMK AO2 T02380170
KRFI 242135Z AUTO 19007KT 170V240 10SM BKN029 BKN036 OVC049 23/17 A3005 RMK AO2 T02300167
KRFI 242115Z AUTO 22004KT 10SM SCT023 BKN035 OVC047 22/17 A3006 RMK AO2 T02220167
KRFI 242055Z AUTO 18003KT 10SM SCT023 BKN037 OVC043 22/17 A3006 RMK AO2 T02200170
KRFI 242035Z AUTO 20005KT 10SM SCT021 SCT030 OVC041 22/17 A3007 RMK AO2 T02150168
KRFI 242015Z AUTO 21005KT 10SM SCT019 SCT027 OVC037 21/17 A3007 RMK AO2 T02120167
KRFI 241955Z AUTO 17006KT 10SM SCT019 OVC033 21/17 A3008 RMK AO2 T02100166
KRFI 241935Z AUTO 17006KT 10SM SCT019 SCT026 OVC033 21/17 A3008 RMK AO2 T02060166
KRFI 241915Z AUTO 18008KT 10SM BKN021 OVC028 21/17 A3009 RMK AO2 T02050165
KRFI 241855Z AUTO 21004KT 10SM SCT019 OVC030 21/17 A3009 RMK AO2 T02050165
KRFI 241835Z AUTO 20007KT 10SM OVC019 20/16 A3010 RMK AO2 T02000160
KRFI 241815Z AUTO 18004KT 10SM OVC025 20/16 A3010 RMK AO2 T02030161
KRFI 241755Z AUTO 18007KT 10SM SCT020 OVC026 21/16 A3011 RMK AO2 T02050161 10210 20150
KRFI 241735Z AUTO 21008KT 190V250 10SM BKN016 OVC026 21/16 A3011 RMK AO2 T02080160
KRFI 241715Z AUTO 21004G15KT 10SM OVC014 21/16 A3012 RMK AO2 T02050162
KRFI 241655Z AUTO 22007KT 170V270 10SM OVC012 19/16 A3013 RMK AO2 T01920159
KRFI 241635Z AUTO 21006KT 10SM OVC010 19/16 A3013 RMK AO2 T01910160
KRFI 241615Z AUTO 19007KT 10SM OVC010 19/16 A3014 RMK AO2 T01850156
KRFI 241555Z AUTO 20005KT 10SM OVC008 18/16 A3014 RMK AO2 T01800155
KRFI 241535Z AUTO 20006KT 10SM OVC008 18/15 A3014 RMK AO2 T01760152
KRFI 241515Z AUTO 20007KT 160V230 10SM OVC008 17/15 A3014 RMK AO2 T01700150
KRFI 241455Z AUTO 20005KT 10SM OVC008 17/15 A3014 RMK AO2 T01650146
KRFI 241435Z AUTO 19004KT 10SM OVC008 16/14 A3014 RMK AO2 T01610143
KRFI 241415Z AUTO 19004KT 10SM OVC008 16/14 A3013 RMK AO2 T01580140
KRFI 241355Z AUTO 19005KT 10SM OVC008 16/14 A3012 RMK AO2 T01570140
KRFI 241335Z AUTO 19006KT 10SM OVC010 16/14 A3012 RMK AO2 T01550137
KRFI 241315Z AUTO 20005KT 10SM OVC010 16/14 A3011 RMK AO2 T01550136
KRFI 241255Z AUTO 20005KT 10SM BKN010 OVC028 15/13 A3011 RMK AO2 T01530134
KRFI 241235Z AUTO 18003KT 10SM SCT010 SCT021 OVC028 15/13 A3010 RMK AO2 T01510131
KRFI 241215Z AUTO 17003KT 10SM OVC028 15/13 A3010 RMK AO2 T01500130
KRFI 241155Z AUTO 17004KT 10SM SCT022 OVC028 15/13 A3009 RMK AO2 T01500127 10170 20145
KRFI 241135Z AUTO 17003KT 10SM BKN022 OVC028 15/13 A3009 RMK AO2 T01490125
KRFI 241115Z AUTO 17004KT 10SM OVC022 15/13 A3009 RMK AO2 T01470125
KRFI 241055Z AUTO 16005KT 10SM OVC024 15/12 A3009 RMK AO2 T01470123
KRFI 241035Z AUTO 16004KT 10SM OVC024 15/12 A3009 RMK AO2 T01470123
KRFI 241015Z AUTO 00000KT 10SM OVC024 15/12 A3009 RMK AO2 T01470123
KRFI 240955Z AUTO 17003KT 10SM BKN024 15/12 A3009 RMK AO2 T01460122
KRFI 240935Z AUTO 00000KT 10SM SCT024 15/12 A3009 RMK AO2 T01460121
KRFI 240915Z AUTO 18004KT 10SM CLR 15/12 A3009 RMK AO2 T01500121
KRFI 240855Z AUTO 18003KT 10SM CLR 15/12 A3009 RMK AO2 T01510121
KRFI 240835Z AUTO 18005KT 10SM CLR 15/12 A3009 RMK AO2 T01540121
KRFI 240815Z AUTO 16007KT 10SM CLR 16/12 A3009 RMK AO2 T01550121
KRFI 240755Z AUTO 19005KT 10SM SCT090 16/12 A3011 RMK AO2 T01570121
KRFI 240735Z AUTO 18005KT 10SM CLR 16/12 A3010 RMK AO2 T01580121
KRFI 240715Z AUTO 18005KT 10SM CLR 16/12 A3011 RMK AO2 T01600122
KRFI 240655Z AUTO 18006KT 10SM SCT090 16/12 A3011 RMK AO2 T01630122
KRFI 240635Z AUTO 18005KT 10SM BKN090 17/12 A3011 RMK AO2 T01650123
KRFI 240615Z AUTO 18007G15KT 150V210 10SM CLR 17/13 A3010 RMK AO2 LTG DSNT N T01680125
KRFI 240555Z AUTO 17009KT 10SM SCT090 17/13 A3010 RMK AO2 T01690126 10210 20169 402280089